createdAt,value
2018-05-07T00:01:56.499Z,0
2018-05-07T00:06:56.563Z,0
2018-05-07T00:11:56.775Z,0
2018-05-07T00:16:56.480Z,0
2018-05-07T00:21:56.823Z,0
2018-05-07T00:26:56.705Z,0
2018-05-07T00:31:56.500Z,0
2018-05-07T00:36:56.607Z,0
2018-05-07T00:41:56.573Z,0
2018-05-07T00:46:56.611Z,0
2018-05-07T00:51:56.903Z,0
2018-05-07T00:56:56.714Z,0
2018-05-07T01:01:56.814Z,0
2018-05-07T01:06:56.642Z,0
2018-05-07T01:11:56.430Z,0
2018-05-07T01:16:56.500Z,0
2018-05-07T01:21:56.561Z,0
2018-05-07T01:26:56.648Z,0
2018-05-07T01:31:56.588Z,0
2018-05-07T01:36:56.754Z,0
2018-05-07T01:41:56.577Z,0
2018-05-07T01:46:56.609Z,0
2018-05-07T01:51:56.305Z,0
2018-05-07T01:56:56.617Z,0
2018-05-07T02:01:56.384Z,0
2018-05-07T02:06:56.433Z,0
2018-05-07T02:11:56.567Z,0
2018-05-07T02:16:56.370Z,0
2018-05-07T02:21:56.489Z,0
2018-05-07T02:26:56.417Z,0
2018-05-07T02:31:56.313Z,0
2018-05-07T02:36:56.283Z,0
2018-05-07T02:41:56.419Z,0
2018-05-07T02:46:56.211Z,0
2018-05-07T02:51:56.444Z,0
2018-05-07T02:56:56.465Z,0
2018-05-07T03:01:56.461Z,0
2018-05-07T03:06:56.369Z,0
2018-05-07T03:11:56.224Z,0
2018-05-07T03:16:56.466Z,0
2018-05-07T03:21:56.280Z,0
2018-05-07T03:26:56.399Z,0
2018-05-07T03:31:56.173Z,0
2018-05-07T03:36:56.215Z,0
2018-05-07T03:41:56.443Z,0
2018-05-07T03:46:56.373Z,0
2018-05-07T03:51:56.267Z,0.8
2018-05-07T03:56:56.421Z,2.5
2018-05-07T04:01:56.274Z,4.2
2018-05-07T04:06:56.115Z,5.8
2018-05-07T04:11:56.341Z,8.3
2018-05-07T04:16:56.136Z,10.8
2018-05-07T04:21:56.143Z,13.3
2018-05-07T04:26:56.431Z,15.8
2018-05-07T04:31:56.333Z,18.3
2018-05-07T04:36:56.335Z,20.8
2018-05-07T04:41:56.389Z,23.3
2018-05-07T04:46:56.074Z,25
2018-05-07T04:51:56.067Z,27.5
2018-05-07T04:56:56.110Z,30.8
2018-05-07T05:01:56.162Z,32.5
2018-05-07T05:06:55.993Z,35
2018-05-07T05:11:56.206Z,37.5
2018-05-07T05:16:56.043Z,40
2018-05-07T05:21:56.084Z,44.2
2018-05-07T05:26:56.145Z,46.7
2018-05-07T05:31:56.044Z,50
2018-05-07T05:36:56.176Z,53.3
2018-05-07T05:41:56.208Z,57.5
2018-05-07T05:46:56.038Z,61.7
2018-05-07T05:51:56.007Z,65
2018-05-07T05:56:56.025Z,68.3
2018-05-07T06:01:56.067Z,72.5
2018-05-07T06:06:56.070Z,79.2
2018-05-07T06:11:56.101Z,86.7
2018-05-07T06:16:55.940Z,95.8
2018-05-07T06:21:55.933Z,106.7
2018-05-07T06:26:55.950Z,115
2018-05-07T06:31:56.210Z,120.8
2018-05-07T06:36:55.957Z,125.8
2018-05-07T06:41:56.164Z,131.7
2018-05-07T06:46:55.935Z,136.7
2018-05-07T06:51:55.895Z,152.5
2018-05-07T06:56:55.893Z,163.3
2018-05-07T07:01:55.930Z,165
2018-05-07T07:06:56.154Z,189.2
2018-05-07T07:11:56.100Z,194.2
2018-05-07T07:16:56.132Z,193.3
2018-05-07T07:21:55.926Z,194.2
2018-05-07T07:26:55.962Z,194.2
2018-05-07T07:31:55.796Z,194.2
2018-05-07T07:36:55.846Z,191.7
2018-05-07T07:41:55.993Z,192.5
2018-05-07T07:46:55.923Z,191.7
2018-05-07T07:51:56.295Z,190.8
2018-05-07T07:56:55.905Z,189.2
2018-05-07T08:01:55.820Z,190
2018-05-07T08:06:56.073Z,190
2018-05-07T08:11:55.933Z,190.8
2018-05-07T08:16:55.918Z,193.3
2018-05-07T08:21:56.007Z,195.8
2018-05-07T08:26:56.017Z,200
2018-05-07T08:31:55.803Z,203.3
2018-05-07T08:36:55.923Z,208.3
2018-05-07T08:41:55.777Z,213.3
2018-05-07T08:46:55.910Z,221.7
2018-05-07T08:51:55.891Z,231.7
2018-05-07T08:56:55.930Z,245.8
2018-05-07T09:01:55.815Z,260
2018-05-07T09:06:55.863Z,277.5
2018-05-07T09:11:55.881Z,295.8
2018-05-07T09:16:55.736Z,317.5
2018-05-07T09:21:55.689Z,340.8
2018-05-07T09:26:55.632Z,368.3
2018-05-07T09:31:55.903Z,395
2018-05-07T09:36:55.791Z,423.3
2018-05-07T09:41:55.957Z,455
2018-05-07T09:46:55.634Z,489.2
2018-05-07T09:51:55.816Z,520.8
2018-05-07T09:56:55.852Z,553.3
2018-05-07T10:01:55.780Z,592.5
2018-05-07T10:06:55.930Z,624.2
2018-05-07T10:11:55.813Z,653.3
2018-05-07T10:16:55.767Z,687.5
2018-05-07T10:21:55.927Z,728.3
2018-05-07T10:26:55.554Z,776.7
2018-05-07T10:31:55.580Z,827.5
2018-05-07T10:36:55.834Z,879.2
2018-05-07T10:41:55.488Z,913.3
2018-05-07T10:46:55.532Z,961.7
2018-05-07T10:51:55.738Z,994.2
2018-05-07T10:56:55.779Z,1031.7
2018-05-07T11:01:55.627Z,1076.7
2018-05-07T11:06:55.449Z,1112.5
2018-05-07T11:11:55.529Z,1126.7
2018-05-07T11:16:55.531Z,1136.7
2018-05-07T11:21:55.478Z,1169.2
2018-05-07T11:26:55.581Z,1205.8
2018-05-07T11:31:55.474Z,1233.3
2018-05-07T11:36:55.638Z,1270.8
2018-05-07T11:41:55.793Z,1305
2018-05-07T11:46:55.793Z,1372.5
2018-05-07T11:51:55.453Z,1420.8
2018-05-07T11:56:55.645Z,1465
2018-05-07T12:01:55.626Z,1500
2018-05-07T12:06:55.591Z,1544.2
2018-05-07T12:11:55.433Z,1592.5
2018-05-07T12:16:55.623Z,1630
2018-05-07T12:21:55.584Z,1654.2
2018-05-07T12:26:55.574Z,1677.5
2018-05-07T12:31:55.720Z,1690.8
2018-05-07T12:36:55.509Z,1707.5
2018-05-07T12:41:55.654Z,1699.2
2018-05-07T12:46:55.508Z,1782.5
2018-05-07T12:51:55.360Z,1839.2
2018-05-07T12:56:55.384Z,1898.3
2018-05-07T13:01:55.515Z,1935.8
2018-05-07T13:06:55.533Z,1962.5
2018-05-07T13:11:55.263Z,1985
2018-05-07T13:16:55.319Z,2005.8
2018-05-07T13:21:55.618Z,2039.2
2018-05-07T13:26:55.350Z,2025
2018-05-07T13:31:55.431Z,2035
2018-05-07T13:36:55.721Z,2039.2
2018-05-07T13:41:55.434Z,2024.2
2018-05-07T13:46:55.256Z,2040.8
2018-05-07T13:51:55.342Z,2031.7
2018-05-07T13:56:55.347Z,1985.8
2018-05-07T14:01:55.272Z,1996.7
2018-05-07T14:06:55.565Z,1955
2018-05-07T14:11:55.512Z,1949.2
2018-05-07T14:16:55.182Z,1907.5
2018-05-07T14:21:55.510Z,1837.5
2018-05-07T14:26:55.214Z,1855.8
2018-05-07T14:31:55.443Z,1830.8
2018-05-07T14:36:55.369Z,1762.5
2018-05-07T14:41:55.337Z,1780
2018-05-07T14:46:55.320Z,1766.7
2018-05-07T14:51:55.310Z,1712.5
2018-05-07T14:56:55.123Z,1695.8
2018-05-07T15:01:55.197Z,1675
2018-05-07T15:06:55.363Z,1685.8
2018-05-07T15:11:55.183Z,1636.7
2018-05-07T15:16:55.364Z,1621.7
2018-05-07T15:21:55.124Z,1573.3
2018-05-07T15:26:55.345Z,1545.8
2018-05-07T15:31:55.140Z,1469.2
2018-05-07T15:36:55.103Z,1392.5
2018-05-07T15:41:55.230Z,1330
2018-05-07T15:46:55.224Z,1252.5
2018-05-07T15:51:55.113Z,1194.2
2018-05-07T15:56:55.225Z,1127.5
2018-05-07T16:01:55.355Z,991.7
2018-05-07T16:06:55.377Z,726.7
2018-05-07T16:11:55.355Z,276.7
2018-05-07T16:16:55.016Z,165
2018-05-07T16:21:55.226Z,145
2018-05-07T16:26:55.226Z,133.3
2018-05-07T16:31:55.074Z,124.2
2018-05-07T16:36:55.340Z,114.2
2018-05-07T16:41:55.207Z,106.7
2018-05-07T16:46:55.217Z,97.5
2018-05-07T16:51:55.436Z,90
2018-05-07T16:56:55.370Z,86.7
2018-05-07T17:01:55.275Z,81.7
2018-05-07T17:06:55.238Z,78.3
2018-05-07T17:11:55.229Z,75.8
2018-05-07T17:16:55.344Z,74.2
2018-05-07T17:21:54.951Z,71.7
2018-05-07T17:26:55.062Z,69.2
2018-05-07T17:31:55.094Z,66.7
2018-05-07T17:36:55.193Z,64.2
2018-05-07T17:41:55.051Z,61.7
2018-05-07T17:46:54.969Z,57.5
2018-05-07T17:51:55.135Z,54.2
2018-05-07T17:56:55.016Z,50.8
2018-05-07T18:01:55.075Z,47.5
2018-05-07T18:06:55.194Z,44.2
2018-05-07T18:11:55.050Z,40.8
2018-05-07T18:16:54.920Z,37.5
2018-05-07T18:21:55.045Z,33.3
2018-05-07T18:26:55.077Z,30
2018-05-07T18:31:55.151Z,26.7
2018-05-07T18:36:54.961Z,24.2
2018-05-07T18:41:55.004Z,20.8
2018-05-07T18:46:54.793Z,18.3
2018-05-07T18:51:54.796Z,15
2018-05-07T18:56:55.116Z,11.7
2018-05-07T19:01:54.789Z,9.2
2018-05-07T19:06:55.034Z,6.7
2018-05-07T19:11:55.098Z,5
2018-05-07T19:16:54.865Z,2.5
2018-05-07T19:21:55.127Z,1.7
2018-05-07T19:26:55.076Z,0.8
2018-05-07T19:31:54.711Z,0
2018-05-07T19:36:54.791Z,0
2018-05-07T19:41:55.091Z,0
2018-05-07T19:46:54.907Z,0
2018-05-07T19:51:54.802Z,0
2018-05-07T19:56:54.710Z,0
2018-05-07T20:01:54.745Z,0
2018-05-07T20:06:54.671Z,0
2018-05-07T20:11:54.938Z,0
2018-05-07T20:16:54.750Z,0
2018-05-07T20:21:54.761Z,0
2018-05-07T20:26:54.694Z,0
2018-05-07T20:31:54.653Z,0
2018-05-07T20:36:54.785Z,0
2018-05-07T20:41:54.791Z,0
2018-05-07T20:46:54.806Z,0
2018-05-07T20:51:54.701Z,0
2018-05-07T20:56:54.756Z,0
2018-05-07T21:01:54.814Z,0
2018-05-07T21:06:54.748Z,0
2018-05-07T21:11:54.904Z,0
2018-05-07T21:16:54.866Z,0
2018-05-07T21:21:54.911Z,0
2018-05-07T21:26:54.604Z,0
2018-05-07T21:31:54.751Z,0
2018-05-07T21:36:54.860Z,0
2018-05-07T21:41:54.580Z,0
2018-05-07T21:46:54.781Z,0
2018-05-07T21:51:54.579Z,0
2018-05-07T21:56:54.911Z,0
2018-05-07T22:01:54.777Z,0
2018-05-07T22:06:54.569Z,0
2018-05-07T22:11:54.679Z,0
2018-05-07T22:16:54.490Z,0
2018-05-07T22:21:54.747Z,0
2018-05-07T22:26:54.500Z,0
2018-05-07T22:31:54.510Z,0
2018-05-07T22:36:54.782Z,0
2018-05-07T22:41:54.415Z,0
2018-05-07T22:46:54.541Z,0
2018-05-07T22:51:54.597Z,0
2018-05-07T22:56:54.785Z,0
2018-05-07T23:01:54.406Z,0
2018-05-07T23:06:54.824Z,0
2018-05-07T23:11:54.470Z,0
2018-05-07T23:16:54.649Z,0
2018-05-07T23:21:54.597Z,0
2018-05-07T23:26:54.452Z,0
2018-05-07T23:31:54.393Z,0
2018-05-07T23:36:54.809Z,0
2018-05-07T23:41:54.406Z,0
2018-05-07T23:46:54.500Z,0
2018-05-07T23:51:54.674Z,0
2018-05-07T23:56:54.719Z,0
